createdAt,value
2022-10-28T00:00:47.295Z,97376.72
2022-10-28T00:03:48.257Z,97377.25
2022-10-28T00:06:45.094Z,97379.06
2022-10-28T00:09:41.960Z,97374.97
2022-10-28T00:12:39.221Z,97375.69
2022-10-28T00:15:36.105Z,97378.63
2022-10-28T00:18:33.006Z,97376.41
2022-10-28T00:21:36.105Z,97377.00
2022-10-28T00:24:32.942Z,97372.63
2022-10-28T00:27:29.904Z,97373.00
2022-10-28T00:30:27.045Z,97377.06
2022-10-28T00:33:23.914Z,97375.16
2022-10-28T00:36:32.860Z,97371.28
2022-10-28T00:39:29.737Z,97370.38
2022-10-28T00:42:26.875Z,97371.94
2022-10-28T00:45:24.506Z,97366.59
2022-10-28T00:48:21.369Z,97364.13
2022-10-28T00:51:22.795Z,97372.19
2022-10-28T00:54:20.942Z,97367.88
2022-10-28T00:57:24.325Z,97365.63
2022-10-28T01:00:21.334Z,97375.06
2022-10-28T01:03:18.673Z,97371.00
2022-10-28T01:06:16.326Z,97377.06
2022-10-28T01:09:13.183Z,97375.81
2022-10-28T01:12:37.173Z,97371.13
2022-10-28T01:15:51.460Z,97378.94
2022-10-28T01:19:14.934Z,97369.31
2022-10-28T01:22:23.754Z,97363.69
2022-10-28T01:25:51.265Z,97370.91
2022-10-28T01:29:34.800Z,97365.84
2022-10-28T01:33:11.898Z,97355.72
2022-10-28T01:36:17.845Z,97347.22
2022-10-28T01:39:37.511Z,97346.47
2022-10-28T01:42:47.289Z,97342.34
2022-10-28T01:46:07.891Z,97343.63
2022-10-28T01:49:31.793Z,97341.63
2022-10-28T01:52:31.756Z,97346.47
2022-10-28T01:55:36.268Z,97351.28
2022-10-28T01:58:33.898Z,97343.22
2022-10-28T02:01:32.962Z,97336.06
2022-10-28T02:04:29.992Z,97337.16
2022-10-28T02:07:26.817Z,97332.25
2022-10-28T02:10:34.070Z,97332.75
2022-10-28T02:13:46.806Z,97333.56
2022-10-28T02:16:52.263Z,97324.63
2022-10-28T02:20:17.203Z,97336.88
2022-10-28T02:23:38.343Z,97346.56
2022-10-28T02:26:41.573Z,97350.59
2022-10-28T02:29:57.278Z,97340.13
2022-10-28T02:33:01.554Z,97335.88
2022-10-28T02:36:05.075Z,97339.56
2022-10-28T02:39:04.294Z,97343.66
2022-10-28T02:42:08.868Z,97330.03
2022-10-28T02:45:23.990Z,97331.84
2022-10-28T02:48:55.055Z,97323.63
2022-10-28T02:52:03.729Z,97316.44
2022-10-28T02:55:04.674Z,97316.97
2022-10-28T02:58:01.863Z,97309.78
2022-10-28T03:00:58.697Z,97299.06
2022-10-28T03:03:55.703Z,97303.38
2022-10-28T03:06:52.528Z,97303.59
2022-10-28T03:09:49.430Z,97305.75
2022-10-28T03:12:46.264Z,97304.97
2022-10-28T03:15:43.059Z,97299.41
2022-10-28T03:18:40.006Z,97295.69
2022-10-28T03:21:36.832Z,97292.66
2022-10-28T03:24:33.666Z,97297.28
2022-10-28T03:27:30.531Z,97295.69
2022-10-28T03:30:27.350Z,97301.81
2022-10-28T03:33:24.219Z,97298.31
2022-10-28T03:36:21.060Z,97308.19
2022-10-28T03:39:17.865Z,97312.75
2022-10-28T03:42:14.674Z,97321.88
2022-10-28T03:45:11.586Z,97330.16
2022-10-28T03:48:08.434Z,97333.03
2022-10-28T03:51:05.477Z,97332.53
2022-10-28T03:54:02.397Z,97330.38
2022-10-28T03:56:59.242Z,97319.72
2022-10-28T03:59:56.392Z,97329.91
2022-10-28T04:02:54.058Z,97344.03
2022-10-28T04:05:51.347Z,97347.47
2022-10-28T04:08:48.188Z,97349.88
2022-10-28T04:11:49.359Z,97351.22
2022-10-28T04:14:46.388Z,97340.81
2022-10-28T04:17:43.671Z,97341.06
2022-10-28T04:20:40.604Z,97349.34
2022-10-28T04:23:37.525Z,97338.69
2022-10-28T04:26:34.446Z,97340.53
2022-10-28T04:29:33.003Z,97340.00
2022-10-28T04:32:29.902Z,97344.75
2022-10-28T04:35:26.836Z,97352.53
2022-10-28T04:41:21.833Z,97364.56
2022-10-28T04:44:18.662Z,97355.72
2022-10-28T04:47:16.452Z,97352.53
2022-10-28T04:50:13.440Z,97357.03
2022-10-28T04:53:10.953Z,97346.34
2022-10-28T04:56:08.610Z,97346.91
2022-10-28T04:59:05.455Z,97354.38
2022-10-28T05:02:02.490Z,97346.06
2022-10-28T05:05:03.399Z,97339.91
2022-10-28T05:08:00.249Z,97338.09
2022-10-28T05:10:57.139Z,97336.78
2022-10-28T05:13:54.137Z,97343.19
2022-10-28T05:16:50.980Z,97350.34
2022-10-28T05:19:47.968Z,97352.22
2022-10-28T05:22:54.870Z,97357.03
2022-10-28T05:25:52.523Z,97358.63
2022-10-28T05:28:50.563Z,97355.47
2022-10-28T05:31:47.428Z,97349.31
2022-10-28T05:34:44.239Z,97347.16
2022-10-28T05:37:41.063Z,97354.41
2022-10-28T05:40:37.895Z,97352.53
2022-10-28T05:43:34.735Z,97367.19
2022-10-28T05:46:31.696Z,97359.97
2022-10-28T05:49:31.480Z,97358.94
2022-10-28T05:52:28.368Z,97359.44
2022-10-28T05:55:28.425Z,97353.06
2022-10-28T05:58:25.339Z,97358.91
2022-10-28T06:01:22.228Z,97350.34
2022-10-28T06:04:19.193Z,97353.28
2022-10-28T06:07:16.054Z,97361.56
2022-10-28T06:10:12.939Z,97354.41
2022-10-28T06:13:08.301Z,97366.16
2022-10-28T06:16:05.383Z,97364.50
2022-10-28T06:19:02.216Z,97365.56
2022-10-28T06:21:59.063Z,97364.22
2022-10-28T06:24:55.978Z,97366.38
2022-10-28T06:27:58.416Z,97370.09
2022-10-28T06:31:04.879Z,97372.25
2022-10-28T06:34:04.187Z,97374.91
2022-10-28T06:37:01.041Z,97383.44
2022-10-28T06:39:58.833Z,97381.31
2022-10-28T06:43:00.818Z,97377.00
2022-10-28T06:46:03.779Z,97373.28
2022-10-28T06:49:05.890Z,97365.22
2022-10-28T06:52:03.059Z,97357.69
2022-10-28T06:54:59.891Z,97354.75
2022-10-28T06:58:03.169Z,97363.47
2022-10-28T07:01:04.869Z,97358.97
2022-10-28T07:04:04.493Z,97363.47
2022-10-28T07:07:01.361Z,97356.81
2022-10-28T07:09:58.250Z,97346.63
2022-10-28T07:12:55.460Z,97342.03
2022-10-28T07:15:54.170Z,97318.72
2022-10-28T07:18:51.081Z,97270.63
2022-10-28T07:21:48.466Z,97240.69
2022-10-28T07:24:45.346Z,97251.63
2022-10-28T07:27:42.166Z,97241.25
2022-10-28T07:30:38.977Z,97271.97
2022-10-28T07:33:35.856Z,97273.22
2022-10-28T07:36:32.788Z,97273.56
2022-10-28T07:39:30.119Z,97273.22
2022-10-28T07:42:27.014Z,97283.38
2022-10-28T07:45:23.889Z,97275.84
2022-10-28T07:48:20.735Z,97275.56
2022-10-28T07:51:17.579Z,97270.81
2022-10-28T07:54:14.422Z,97269.38
2022-10-28T07:57:11.306Z,97264.72
2022-10-28T08:00:09.143Z,97257.28
2022-10-28T08:03:06.097Z,97281.31
2022-10-28T08:06:12.340Z,97281.31
2022-10-28T08:09:09.179Z,97274.50
2022-10-28T08:12:09.425Z,97293.28
2022-10-28T08:15:09.479Z,97287.84
2022-10-28T08:18:06.447Z,97294.16
2022-10-28T08:21:05.836Z,97288.56
2022-10-28T08:24:02.723Z,97286.41
2022-10-28T08:26:59.557Z,97289.28
2022-10-28T08:29:56.419Z,97280.88
2022-10-28T08:32:57.625Z,97270.91
2022-10-28T08:35:54.467Z,97277.94
2022-10-28T08:38:51.417Z,97281.63
2022-10-28T08:42:26.001Z,97274.78
2022-10-28T08:45:52.114Z,97272.59
2022-10-28T08:48:50.898Z,97272.78
2022-10-28T08:52:08.419Z,97282.22
2022-10-28T08:55:19.484Z,97274.56
2022-10-28T08:58:36.698Z,97266.31
2022-10-28T09:01:49.398Z,97264.66
2022-10-28T09:04:47.863Z,97252.28
2022-10-28T09:07:44.720Z,97248.06
2022-10-28T09:10:55.455Z,97259.19
2022-10-28T09:14:23.388Z,97256.97
2022-10-28T09:17:33.929Z,97255.69
2022-10-28T09:20:57.195Z,97243.00
2022-10-28T09:24:19.900Z,97239.06
2022-10-28T09:27:43.035Z,97228.09
2022-10-28T09:31:11.418Z,97226.25
2022-10-28T09:35:06.349Z,97234.75
2022-10-28T09:38:27.057Z,97217.34
2022-10-28T09:41:43.470Z,97220.56
2022-10-28T09:45:05.198Z,97208.28
2022-10-28T09:48:32.996Z,97214.66
2022-10-28T09:51:50.410Z,97210.59
2022-10-28T09:54:56.195Z,97207.88
2022-10-28T09:57:53.532Z,97208.69
2022-10-28T10:00:50.687Z,97207.72
2022-10-28T10:03:54.020Z,97201.63
2022-10-28T10:07:12.315Z,97204.81
2022-10-28T10:10:28.736Z,97203.53
2022-10-28T10:13:35.590Z,97198.72
2022-10-28T10:16:46.972Z,97191.22
2022-10-28T10:20:14.506Z,97194.72
2022-10-28T10:23:34.165Z,97197.97
2022-10-28T10:26:33.401Z,97209.25
2022-10-28T10:29:32.329Z,97215.25
2022-10-28T10:32:32.274Z,97212.97
2022-10-28T10:35:33.443Z,97222.88
2022-10-28T10:38:31.878Z,97226.31
2022-10-28T10:41:43.053Z,97222.25
2022-10-28T10:44:39.958Z,97228.94
2022-10-28T10:47:36.909Z,97230.28
2022-10-28T10:50:34.537Z,97235.75
2022-10-28T10:53:33.297Z,97234.03
2022-10-28T10:56:33.052Z,97218.44
2022-10-28T10:59:31.606Z,97212.59
2022-10-28T11:02:35.018Z,97211.44
2022-10-28T11:05:38.192Z,97215.63
2022-10-28T11:08:42.626Z,97206.88
2022-10-28T11:11:41.021Z,97208.56
2022-10-28T11:14:37.840Z,97210.69
2022-10-28T11:17:35.013Z,97204.78
2022-10-28T11:21:07.195Z,97207.19
2022-10-28T11:24:16.028Z,97191.00
2022-10-28T11:27:43.362Z,97190.78
2022-10-28T11:31:02.762Z,97184.03
2022-10-28T11:34:56.911Z,97188.56
2022-10-28T11:38:18.896Z,97172.75
2022-10-28T11:41:35.796Z,97167.84
2022-10-28T11:45:08.802Z,97161.53
2022-10-28T11:48:21.931Z,97173.28
2022-10-28T11:51:24.581Z,97170.47
2022-10-28T11:54:43.066Z,97154.50
2022-10-28T11:57:49.139Z,97152.00
2022-10-28T12:01:09.618Z,97147.41
2022-10-28T12:04:35.602Z,97147.22
2022-10-28T12:08:05.295Z,97155.88
2022-10-28T12:11:11.488Z,97144.59
2022-10-28T12:14:54.468Z,97145.03
2022-10-28T12:18:00.250Z,97140.97
2022-10-28T12:21:31.644Z,97144.00
2022-10-28T12:24:30.931Z,97135.13
2022-10-28T12:27:37.740Z,97135.16
2022-10-28T12:30:40.574Z,97138.31
2022-10-28T12:33:46.386Z,97135.75
2022-10-28T12:36:53.657Z,97120.78
2022-10-28T12:40:18.432Z,97124.31
2022-10-28T12:43:43.804Z,97111.44
2022-10-28T12:47:39.073Z,97121.63
2022-10-28T12:51:03.354Z,97112.72
2022-10-28T12:54:30.258Z,97101.59
2022-10-28T12:57:30.911Z,97106.69
2022-10-28T13:00:37.693Z,97113.25
2022-10-28T13:03:35.395Z,97107.34
2022-10-28T13:07:09.489Z,97107.00
2022-10-28T13:10:34.324Z,97109.72
2022-10-28T13:13:52.301Z,97107.00
2022-10-28T13:17:26.677Z,97103.50
2022-10-28T13:20:52.468Z,97096.28
2022-10-28T13:24:03.765Z,97111.56
2022-10-28T13:27:05.015Z,97105.56
2022-10-28T13:30:03.494Z,97109.78
2022-10-28T13:33:15.689Z,97106.38
2022-10-28T13:36:20.444Z,97108.63
2022-10-28T13:39:44.002Z,97104.13
2022-10-28T13:42:47.885Z,97101.97
2022-10-28T13:45:53.664Z,97104.41
2022-10-28T13:48:50.616Z,97107.72
2022-10-28T13:51:51.323Z,97108.50
2022-10-28T13:54:56.017Z,97107.69
2022-10-28T13:58:03.760Z,97111.09
2022-10-28T14:02:07.943Z,97118.47
2022-10-28T14:05:19.465Z,97128.81
2022-10-28T14:08:40.175Z,97123.97
2022-10-28T14:11:36.952Z,97128.06
2022-10-28T14:14:33.898Z,97124.66
2022-10-28T14:17:40.126Z,97114.84
2022-10-28T14:20:42.225Z,97122.94
2022-10-28T14:23:45.137Z,97121.16
2022-10-28T14:27:39.323Z,97122.59
2022-10-28T14:30:37.247Z,97120.72
2022-10-28T14:33:36.290Z,97121.16
2022-10-28T14:37:00.198Z,97110.88
2022-10-28T14:40:02.879Z,97123.50
2022-10-28T14:43:16.285Z,97120.75
2022-10-28T14:46:47.326Z,97124.97
2022-10-28T14:50:26.166Z,97133.09
2022-10-28T14:53:30.413Z,97123.06
2022-10-28T14:56:31.831Z,97132.97
2022-10-28T14:59:42.524Z,97133.16
2022-10-28T15:02:39.572Z,97126.34
2022-10-28T15:05:36.648Z,97136.66
2022-10-28T15:08:34.267Z,97123.03
2022-10-28T15:11:31.767Z,97127.41
2022-10-28T15:14:53.713Z,97119.50
2022-10-28T15:17:50.982Z,97132.75
2022-10-28T15:20:47.826Z,97133.34
2022-10-28T15:23:47.351Z,97131.19
2022-10-28T15:26:44.567Z,97132.00
2022-10-28T15:29:43.152Z,97123.91
2022-10-28T15:32:40.069Z,97135.56
2022-10-28T15:35:38.403Z,97131.34
2022-10-28T15:38:40.132Z,97126.91
2022-10-28T15:41:50.964Z,97117.88
2022-10-28T15:44:54.199Z,97126.94
2022-10-28T15:47:52.035Z,97111.81
2022-10-28T15:51:13.429Z,97123.03
2022-10-28T15:54:18.479Z,97126.38
2022-10-28T15:57:46.479Z,97125.44
2022-10-28T16:00:55.511Z,97125.19
2022-10-28T16:03:52.696Z,97123.72
2022-10-28T16:07:00.535Z,97122.81
2022-10-28T16:09:57.852Z,97122.78
2022-10-28T16:12:54.917Z,97124.41
2022-10-28T16:15:59.624Z,97129.03
2022-10-28T16:19:19.334Z,97131.72
2022-10-28T16:22:18.342Z,97124.41
2022-10-28T16:25:21.659Z,97122.56
2022-10-28T16:28:26.838Z,97123.59
2022-10-28T16:31:28.519Z,97132.81
2022-10-28T16:34:25.683Z,97132.00
2022-10-28T16:37:34.301Z,97119.50
2022-10-28T16:43:53.040Z,97126.97
2022-10-28T16:46:49.947Z,97126.03
2022-10-28T16:49:52.547Z,97129.50
2022-10-28T16:52:56.096Z,97139.28
2022-10-28T16:55:58.790Z,97136.56
2022-10-28T16:58:55.836Z,97141.84
2022-10-28T17:01:52.925Z,97137.88
2022-10-28T17:04:49.910Z,97143.56
2022-10-28T17:07:46.949Z,97142.50
2022-10-28T17:10:43.971Z,97149.63
2022-10-28T17:13:40.893Z,97143.97
2022-10-28T17:16:40.593Z,97137.78
2022-10-28T17:19:41.491Z,97142.75
2022-10-28T17:22:40.534Z,97157.78
2022-10-28T17:25:37.410Z,97158.47
2022-10-28T17:28:34.487Z,97149.91
2022-10-28T17:31:31.313Z,97150.50
2022-10-28T17:34:28.160Z,97159.13
2022-10-28T17:37:25.111Z,97148.16
2022-10-28T17:40:22.022Z,97152.13
2022-10-28T17:43:18.816Z,97164.59
2022-10-28T17:46:15.653Z,97168.13
2022-10-28T17:49:12.473Z,97157.88
2022-10-28T17:52:09.495Z,97168.88
2022-10-28T17:55:07.360Z,97154.91
2022-10-28T17:58:04.179Z,97157.72
2022-10-28T18:01:07.340Z,97152.88
2022-10-28T18:04:06.067Z,97163.88
2022-10-28T18:07:02.941Z,97163.25
2022-10-28T18:09:59.770Z,97156.84
2022-10-28T18:12:56.830Z,97168.09
2022-10-28T18:15:54.428Z,97161.66
2022-10-28T18:18:53.281Z,97162.84
2022-10-28T18:21:50.208Z,97151.22
2022-10-28T18:24:47.039Z,97160.56
2022-10-28T18:27:43.928Z,97158.38
2022-10-28T18:30:40.801Z,97155.81
2022-10-28T18:33:38.595Z,97151.19
2022-10-28T18:36:35.877Z,97140.41
2022-10-28T18:39:32.712Z,97145.28
2022-10-28T18:42:29.685Z,97142.44
2022-10-28T18:45:26.576Z,97145.34
2022-10-28T18:48:23.422Z,97143.19
2022-10-28T18:51:20.572Z,97145.59
2022-10-28T18:54:17.523Z,97154.69
2022-10-28T18:57:14.423Z,97155.56
2022-10-28T19:00:18.010Z,97165.94
2022-10-28T19:03:21.853Z,97162.97
2022-10-28T19:06:19.357Z,97168.34
2022-10-28T19:09:16.185Z,97170.34
2022-10-28T19:12:13.111Z,97161.94
2022-10-28T19:15:10.159Z,97166.56
2022-10-28T19:18:08.195Z,97147.97
2022-10-28T19:21:10.575Z,97163.03
2022-10-28T19:24:07.814Z,97158.06
2022-10-28T19:27:04.785Z,97149.94
2022-10-28T19:30:05.505Z,97149.25
2022-10-28T19:33:04.797Z,97151.72
2022-10-28T19:36:26.303Z,97162.72
2022-10-28T19:39:23.190Z,97161.19
2022-10-28T19:42:20.031Z,97161.28
2022-10-28T19:45:16.893Z,97172.09
2022-10-28T19:48:13.723Z,97178.91
2022-10-28T19:51:19.055Z,97181.44
2022-10-28T19:54:15.947Z,97174.78
2022-10-28T20:00:14.858Z,97185.94
2022-10-28T20:03:11.673Z,97189.25
2022-10-28T20:06:11.973Z,97201.50
2022-10-28T20:09:09.437Z,97190.75
2022-10-28T20:12:06.503Z,97187.75
2022-10-28T20:15:03.926Z,97188.53
2022-10-28T20:18:00.754Z,97192.03
2022-10-28T20:21:06.028Z,97195.81
2022-10-28T20:24:06.382Z,97197.63
2022-10-28T20:27:03.393Z,97198.25
2022-10-28T20:30:00.828Z,97203.13
2022-10-28T20:32:57.656Z,97213.06
2022-10-28T20:35:55.814Z,97208.72
2022-10-28T20:38:59.990Z,97205.69
2022-10-28T20:41:56.856Z,97210.28
2022-10-28T20:44:53.680Z,97205.72
2022-10-28T20:47:53.018Z,97203.03
2022-10-28T20:50:55.835Z,97211.44
2022-10-28T20:53:52.819Z,97214.50
2022-10-28T20:56:49.763Z,97221.84
2022-10-28T20:59:46.622Z,97222.78
2022-10-28T21:02:43.580Z,97233.97
2022-10-28T21:05:42.155Z,97223.97
2022-10-28T21:08:39.133Z,97230.50
2022-10-28T21:11:36.043Z,97218.47
2022-10-28T21:14:32.854Z,97216.81
2022-10-28T21:17:29.725Z,97219.09
2022-10-28T21:20:26.536Z,97220.47
2022-10-28T21:23:24.051Z,97214.88
2022-10-28T21:26:21.701Z,97229.25
2022-10-28T21:29:18.548Z,97230.53
2022-10-28T21:32:15.385Z,97223.50
2022-10-28T21:35:12.299Z,97221.03
2022-10-28T21:38:10.509Z,97218.56
2022-10-28T21:41:10.852Z,97221.28
2022-10-28T21:44:07.721Z,97231.56
2022-10-28T21:47:04.595Z,97238.75
2022-10-28T21:50:01.423Z,97235.22
2022-10-28T21:53:03.693Z,97229.81
2022-10-28T21:56:08.329Z,97244.22
2022-10-28T21:59:05.983Z,97240.41
2022-10-28T22:02:02.922Z,97242.09
2022-10-28T22:04:59.875Z,97248.44
2022-10-28T22:07:56.809Z,97236.59
2022-10-28T22:11:06.210Z,97242.47
2022-10-28T22:14:04.820Z,97238.34
2022-10-28T22:17:01.752Z,97238.84
2022-10-28T22:19:58.587Z,97240.38
2022-10-28T22:22:55.741Z,97235.78
2022-10-28T22:25:52.810Z,97232.66
2022-10-28T22:28:50.548Z,97237.84
2022-10-28T22:31:47.719Z,97242.69
2022-10-28T22:34:44.560Z,97239.13
2022-10-28T22:37:41.390Z,97237.25
2022-10-28T22:40:38.230Z,97232.34
2022-10-28T22:43:35.491Z,97238.56
2022-10-28T22:46:33.892Z,97240.91
2022-10-28T22:49:30.813Z,97247.78
2022-10-28T22:52:27.640Z,97241.09
2022-10-28T22:55:24.503Z,97238.38
2022-10-28T22:58:23.346Z,97235.31
2022-10-28T23:01:20.880Z,97244.31
2022-10-28T23:04:17.789Z,97244.66
2022-10-28T23:07:14.599Z,97252.34
2022-10-28T23:10:11.462Z,97253.50
2022-10-28T23:13:12.411Z,97254.09
2022-10-28T23:16:12.727Z,97250.66
2022-10-28T23:19:09.566Z,97256.31
2022-10-28T23:22:06.426Z,97254.34
2022-10-28T23:25:03.335Z,97259.50
2022-10-28T23:28:00.202Z,97260.56
2022-10-28T23:31:05.826Z,97259.03
2022-10-28T23:34:02.685Z,97266.38
2022-10-28T23:36:59.522Z,97262.34
2022-10-28T23:39:56.455Z,97265.09
2022-10-28T23:42:53.682Z,97267.69
2022-10-28T23:45:50.951Z,97253.22
2022-10-28T23:48:47.814Z,97254.47
2022-10-28T23:51:44.618Z,97260.28
2022-10-28T23:54:41.488Z,97262.16
2022-10-28T23:57:38.295Z,97249.56
